Hlavní strana
METAR-TAF:

METAR-TAF

Letiště :

Vientiane, Laos

zeměpisná šířka: 17-57N, zeměpisná délka: 102-34E, výška: 171 m

Aktuální stav počasí

Zpráva byla vytvořena před 23 minutami, v 23:30 UTC
Bezvětří
Teplota 25°C
Vlhkost vzduchu 100%
Tlak 1008 hPa
Viditelnost: 6000 m
Oblačno až skoro zataženo ve výšce 4000 ft
Oblačno až skoro zataženo ve výšce 8300 ft

METAR: VLVT 212330Z 00000KT 6000 BKN040 BKN083 25/25 Q1008 NOSIG

Čas: 06:53 (23:53 UTC)

Předpověď počasí

Zpráva byla vytvořena před 53 minutami, v 23:00 UTC
Předpověď platná od 22 v 00 UTC do 22 v 24 UTC
Severozápadní vítr 4 kt
Viditelnost: 8000 m
Polojasno ve výšce 1600 ft
Oblačno až skoro zataženo ve výšce 4000 ft
Dočasný
od 22 v 14 UTC do 22 v 20 UTC
Viditelnost: 4000 m
Polojasno ve výšce 4000 ft
Oblačno až skoro zataženo ve výšce 8300 ft
kouřmo

TAF: VLVT 212300Z 2200/2224 32004KT 8000 SCT016 BKN040 TEMPO 2214/2220 4000 BR SCT040 BKN083

Stav a předpovědi počasí z více než 4 000 letišť (zprávy METAR a TAF).

Červené a žluté tečky na mapě představují dostupné meteorologické stanice.

Když kurzor umístíte na tečku, zobrazí se název stanice.

Pak kliknutím zobrazíte stav a předpověď počasí.

Chcete-li změnit mapu, kliknutím na zelené tlačítko se znaménkem +mapu přiblížíte, kliknutím na zelené tlačítko se znaménkem – mapu oddálíte a kliknutím na zelené šipky přejdete na sousední mapy.


METAR-TAF: